createdAt,value
2018-08-20T00:02:28.006Z,61.90
2018-08-20T00:05:00.363Z,61.70
2018-08-20T00:07:32.304Z,61.70
2018-08-20T00:10:04.783Z,61.20
2018-08-20T00:12:36.384Z,60.70
2018-08-20T00:15:09.263Z,60.60
2018-08-20T00:17:41.244Z,60.40
2018-08-20T00:20:13.463Z,60.50
2018-08-20T00:22:45.863Z,60.60
2018-08-20T00:25:19.343Z,60.70
2018-08-20T00:27:51.023Z,60.80
2018-08-20T00:30:23.524Z,60.80
2018-08-20T00:32:56.683Z,60.90
2018-08-20T00:35:28.563Z,61.20
2018-08-20T00:38:00.584Z,61.20
2018-08-20T00:40:32.243Z,61.20
2018-08-20T00:43:04.263Z,61.10
2018-08-20T00:45:37.003Z,61.10
2018-08-20T00:48:08.923Z,61.10
2018-08-20T00:50:41.463Z,61.10
2018-08-20T00:53:13.983Z,61.30
2018-08-20T00:55:45.784Z,61.60
2018-08-20T00:58:17.863Z,61.70
2018-08-20T01:00:49.763Z,61.80
2018-08-20T01:03:22.063Z,62.00
2018-08-20T01:05:53.545Z,62.10
2018-08-20T01:08:25.963Z,62.00
2018-08-20T01:10:57.564Z,61.90
2018-08-20T01:13:28.984Z,61.80
2018-08-20T01:16:01.084Z,61.70
2018-08-20T01:18:33.444Z,61.30
2018-08-20T01:21:06.184Z,62.00
2018-08-20T01:23:37.643Z,62.00
2018-08-20T01:26:09.643Z,61.90
2018-08-20T01:28:41.445Z,61.70
2018-08-20T01:31:13.683Z,61.90
2018-08-20T01:33:45.003Z,62.20
2018-08-20T01:36:17.924Z,62.20
2018-08-20T01:38:52.123Z,62.30
2018-08-20T01:41:25.344Z,62.30
2018-08-20T01:43:58.124Z,62.40
2018-08-20T01:46:29.983Z,62.60
2018-08-20T01:49:02.563Z,62.60
2018-08-20T01:51:34.723Z,63.20
2018-08-20T01:54:06.563Z,63.40
2018-08-20T01:56:38.703Z,63.70
2018-08-20T01:59:10.563Z,64.00
2018-08-20T02:01:43.207Z,64.20
2018-08-20T02:04:15.483Z,64.50
2018-08-20T02:06:47.203Z,64.80
2018-08-20T02:09:19.826Z,65.00
2018-08-20T02:11:52.863Z,65.30
2018-08-20T02:14:24.923Z,65.40
2018-08-20T02:16:56.984Z,65.70
2018-08-20T02:19:28.803Z,65.70
2018-08-20T02:22:00.623Z,65.50
2018-08-20T02:24:32.803Z,65.40
2018-08-20T02:27:05.603Z,65.10
2018-08-20T02:29:38.604Z,64.90
2018-08-20T02:32:10.268Z,64.70
2018-08-20T02:34:42.825Z,64.80
2018-08-20T02:37:15.329Z,64.90
2018-08-20T02:39:47.343Z,64.70
2018-08-20T02:42:19.568Z,64.80
2018-08-20T02:44:51.363Z,64.70
2018-08-20T02:47:23.163Z,64.60
2018-08-20T02:49:55.123Z,64.50
2018-08-20T02:52:27.003Z,64.60
2018-08-20T02:54:59.263Z,64.60
2018-08-20T02:57:30.883Z,64.60
2018-08-20T03:00:03.144Z,64.70
2018-08-20T03:02:34.523Z,64.70
2018-08-20T03:05:07.684Z,64.40
2018-08-20T03:07:39.603Z,64.30
2018-08-20T03:10:13.924Z,64.10
2018-08-20T03:12:45.943Z,64.10
2018-08-20T03:15:18.083Z,64.00
2018-08-20T03:17:49.943Z,63.50
2018-08-20T03:20:21.784Z,64.00
2018-08-20T03:22:52.686Z,64.20
2018-08-20T03:25:25.025Z,64.20
2018-08-20T03:27:56.963Z,64.10
2018-08-20T03:30:29.404Z,64.30
2018-08-20T03:33:00.524Z,64.30
2018-08-20T03:35:32.224Z,65.00
2018-08-20T03:38:04.403Z,66.00
2018-08-20T03:40:36.124Z,66.00
2018-08-20T03:43:08.323Z,66.00
2018-08-20T03:45:40.064Z,66.30
2018-08-20T03:48:12.084Z,66.30
2018-08-20T03:50:44.224Z,64.90
2018-08-20T03:53:15.883Z,64.80
2018-08-20T03:55:48.543Z,64.80
2018-08-20T03:58:19.824Z,64.70
2018-08-20T04:00:52.306Z,64.50
2018-08-20T04:03:24.603Z,64.70
2018-08-20T04:05:56.543Z,64.50
2018-08-20T04:08:29.344Z,64.50
2018-08-20T04:11:01.643Z,64.50
2018-08-20T04:13:33.883Z,64.50
2018-08-20T04:16:06.147Z,64.50
2018-08-20T04:18:37.563Z,64.30
2018-08-20T04:21:09.983Z,64.40
2018-08-20T04:23:41.731Z,64.40
2018-08-20T04:26:14.223Z,64.30
2018-08-20T04:28:47.463Z,64.20
2018-08-20T04:31:19.363Z,64.30
2018-08-20T04:33:51.883Z,64.30
2018-08-20T04:36:23.905Z,64.40
2018-08-20T04:38:56.163Z,64.40
2018-08-20T04:41:28.643Z,64.50
2018-08-20T04:44:00.003Z,64.50
2018-08-20T04:46:32.005Z,64.50
2018-08-20T04:49:05.023Z,64.50
2018-08-20T04:51:36.742Z,64.40
2018-08-20T04:54:09.008Z,64.40
2018-08-20T04:56:42.223Z,64.20
2018-08-20T04:59:13.664Z,64.00
2018-08-20T05:01:45.943Z,64.00
2018-08-20T05:04:17.704Z,64.00
2018-08-20T05:06:50.123Z,64.00
2018-08-20T05:09:22.903Z,64.20
2018-08-20T05:11:55.106Z,64.50
2018-08-20T05:14:26.523Z,64.70
2018-08-20T05:16:57.803Z,64.80
2018-08-20T05:19:29.543Z,64.80
2018-08-20T05:22:01.263Z,64.80
2018-08-20T05:24:33.643Z,64.80
2018-08-20T05:27:05.708Z,64.80
2018-08-20T05:29:36.603Z,65.00
2018-08-20T05:32:08.786Z,65.00
2018-08-20T05:34:41.003Z,64.80
2018-08-20T05:37:12.483Z,64.80
2018-08-20T05:39:44.003Z,64.60
2018-08-20T05:42:16.147Z,64.60
2018-08-20T05:44:48.422Z,64.20
2018-08-20T05:47:19.562Z,64.40
2018-08-20T05:49:51.863Z,64.50
2018-08-20T05:52:24.016Z,64.50
2018-08-20T05:54:56.003Z,64.50
2018-08-20T05:57:29.062Z,64.40
2018-08-20T06:00:01.063Z,64.30
2018-08-20T06:02:33.123Z,64.30
2018-08-20T06:05:06.383Z,64.30
2018-08-20T06:07:39.303Z,64.50
2018-08-20T06:10:11.343Z,64.30
2018-08-20T06:12:43.565Z,64.10
2018-08-20T06:15:16.484Z,64.00
2018-08-20T06:17:48.123Z,63.50
2018-08-20T06:20:19.984Z,63.10
2018-08-20T06:22:51.865Z,63.30
2018-08-20T06:25:24.043Z,63.60
2018-08-20T06:27:56.604Z,63.60
2018-08-20T06:30:28.648Z,63.60
2018-08-20T06:33:00.803Z,63.40
2018-08-20T06:35:32.648Z,63.30
2018-08-20T06:38:04.549Z,62.60
2018-08-20T06:40:36.563Z,62.80
2018-08-20T06:43:08.324Z,62.90
2018-08-20T06:45:40.465Z,62.90
2018-08-20T06:48:12.545Z,62.50
2018-08-20T06:50:44.949Z,62.40
2018-08-20T06:53:16.563Z,62.10
2018-08-20T06:55:47.763Z,61.60
2018-08-20T06:58:19.146Z,61.70
2018-08-20T07:00:51.737Z,60.70
2018-08-20T07:03:23.364Z,60.90
2018-08-20T07:05:55.704Z,60.90
2018-08-20T07:08:27.283Z,60.80
2018-08-20T07:11:00.306Z,60.80
2018-08-20T07:13:36.905Z,60.90
2018-08-20T07:16:09.305Z,61.00
2018-08-20T07:18:41.786Z,60.70
2018-08-20T07:21:14.303Z,60.50
2018-08-20T07:23:45.812Z,60.60
2018-08-20T07:26:18.523Z,60.60
2018-08-20T07:28:50.743Z,60.30
2018-08-20T07:31:22.485Z,60.40
2018-08-20T07:33:53.943Z,59.90
2018-08-20T07:36:26.102Z,59.70
2018-08-20T07:38:58.273Z,59.90
2018-08-20T07:41:30.083Z,59.10
2018-08-20T07:44:02.203Z,58.90
2018-08-20T07:46:33.582Z,58.80
2018-08-20T07:49:09.284Z,58.60
2018-08-20T07:51:41.023Z,58.80
2018-08-20T07:54:13.263Z,58.50
2018-08-20T07:56:45.066Z,58.40
2018-08-20T07:59:17.643Z,57.20
2018-08-20T08:01:49.663Z,58.00
2018-08-20T08:04:21.463Z,58.10
2018-08-20T08:06:54.025Z,58.10
2018-08-20T08:09:25.293Z,58.00
2018-08-20T08:11:58.163Z,57.80
2018-08-20T08:14:29.743Z,57.80
2018-08-20T08:17:02.738Z,57.30
2018-08-20T08:19:34.564Z,57.20
2018-08-20T08:22:06.583Z,56.40
2018-08-20T08:24:38.783Z,57.00
2018-08-20T08:27:10.563Z,57.50
2018-08-20T08:29:43.164Z,57.50
2018-08-20T08:32:15.063Z,57.70
2018-08-20T08:34:46.943Z,58.00
2018-08-20T08:37:18.691Z,58.00
2018-08-20T08:39:50.963Z,57.90
2018-08-20T08:42:23.464Z,57.50
2018-08-20T08:44:55.251Z,58.00
2018-08-20T08:47:27.863Z,58.90
2018-08-20T08:50:00.684Z,58.40
2018-08-20T08:52:32.503Z,58.00
2018-08-20T08:55:05.166Z,58.00
2018-08-20T08:57:38.363Z,58.30
2018-08-20T09:00:20.784Z,58.00
2018-08-20T09:02:54.128Z,58.20
2018-08-20T09:05:25.363Z,58.20
2018-08-20T09:07:58.003Z,57.90
2018-08-20T09:10:30.772Z,58.60
2018-08-20T09:13:02.573Z,58.30
2018-08-20T09:15:34.723Z,58.50
2018-08-20T09:18:06.084Z,58.80
2018-08-20T09:20:38.684Z,58.40
2018-08-20T09:23:11.425Z,58.00
2018-08-20T09:25:43.203Z,58.50
2018-08-20T09:28:15.592Z,58.60
2018-08-20T09:30:48.564Z,59.70
2018-08-20T09:33:19.788Z,59.40
2018-08-20T09:35:51.725Z,59.60
2018-08-20T09:38:23.244Z,59.90
2018-08-20T09:40:54.443Z,58.50
2018-08-20T09:43:26.884Z,59.60
2018-08-20T09:45:58.664Z,58.70
2018-08-20T09:48:31.103Z,59.50
2018-08-20T09:51:03.523Z,59.30
2018-08-20T09:53:34.884Z,58.90
2018-08-20T09:56:08.230Z,58.70
2018-08-20T09:58:40.863Z,59.10
2018-08-20T10:01:12.804Z,59.00
2018-08-20T10:03:46.764Z,57.70
2018-08-20T10:06:19.483Z,57.70
2018-08-20T10:08:53.079Z,56.90
2018-08-20T10:11:32.290Z,55.80
2018-08-20T10:14:06.040Z,53.80
2018-08-20T10:16:38.225Z,54.50
2018-08-20T10:19:10.724Z,55.00
2018-08-20T10:21:43.064Z,55.10
2018-08-20T10:24:14.886Z,55.00
2018-08-20T10:26:48.048Z,55.00
2018-08-20T10:29:19.691Z,55.00
2018-08-20T10:31:51.845Z,53.40
2018-08-20T10:34:24.064Z,51.20
2018-08-20T10:36:56.164Z,52.20
2018-08-20T10:39:28.105Z,51.10
2018-08-20T10:42:00.084Z,49.40
2018-08-20T10:44:35.224Z,49.90
2018-08-20T10:47:06.744Z,49.60
2018-08-20T10:49:38.985Z,49.00
2018-08-20T10:52:11.204Z,48.30
2018-08-20T10:54:43.945Z,48.40
2018-08-20T10:57:17.044Z,47.40
2018-08-20T10:59:48.538Z,47.50
2018-08-20T11:02:20.705Z,46.70
2018-08-20T11:04:55.283Z,46.40
2018-08-20T11:07:27.884Z,46.40
2018-08-20T11:10:00.398Z,46.00
2018-08-20T11:12:32.704Z,46.20
2018-08-20T11:15:04.604Z,46.00
2018-08-20T11:17:37.344Z,45.50
2018-08-20T11:20:11.084Z,45.30
2018-08-20T11:22:43.264Z,45.50
2018-08-20T11:25:16.447Z,45.30
2018-08-20T11:27:49.024Z,45.20
2018-08-20T11:30:20.965Z,45.10
2018-08-20T11:32:52.607Z,44.90
2018-08-20T11:35:25.364Z,45.20
2018-08-20T11:37:57.924Z,45.50
2018-08-20T11:40:30.873Z,46.10
2018-08-20T11:43:04.117Z,47.00
2018-08-20T11:45:35.351Z,47.50
2018-08-20T11:48:07.584Z,47.20
2018-08-20T11:50:41.684Z,47.50
2018-08-20T11:53:15.384Z,47.50
2018-08-20T11:55:47.532Z,48.00
2018-08-20T11:58:19.864Z,47.50
2018-08-20T12:00:52.824Z,49.80
2018-08-20T12:03:26.564Z,49.00
2018-08-20T12:05:58.444Z,49.20
2018-08-20T12:08:30.044Z,50.00
2018-08-20T12:11:01.708Z,50.00
2018-08-20T12:13:33.608Z,49.70
2018-08-20T12:16:05.584Z,49.90
2018-08-20T12:18:37.425Z,50.20
2018-08-20T12:21:09.445Z,49.90
2018-08-20T12:23:42.103Z,48.70
2018-08-20T12:26:13.924Z,48.20
2018-08-20T12:28:48.164Z,48.70
2018-08-20T12:31:21.364Z,48.20
2018-08-20T12:33:54.665Z,49.10
2018-08-20T12:36:25.903Z,49.00
2018-08-20T12:38:58.304Z,49.50
2018-08-20T12:41:30.044Z,49.10
2018-08-20T12:44:01.364Z,48.30
2018-08-20T12:47:02.153Z,50.20
2018-08-20T12:49:35.163Z,49.80
2018-08-20T12:52:07.543Z,48.20
2018-08-20T12:54:40.943Z,49.70
2018-08-20T12:57:13.284Z,49.10
2018-08-20T12:59:48.984Z,49.30
2018-08-20T13:02:20.664Z,48.70
2018-08-20T13:04:53.123Z,48.50
2018-08-20T13:07:25.604Z,48.20
2018-08-20T13:09:56.983Z,47.50
2018-08-20T13:12:29.604Z,47.70
2018-08-20T13:15:02.243Z,47.20
2018-08-20T13:17:34.108Z,47.10
2018-08-20T13:20:05.605Z,47.30
2018-08-20T13:22:38.063Z,47.30
2018-08-20T13:25:11.204Z,47.20
2018-08-20T13:27:43.684Z,46.70
2018-08-20T13:30:16.143Z,47.00
2018-08-20T13:32:46.545Z,46.50
2018-08-20T13:35:18.724Z,46.10
2018-08-20T13:37:50.784Z,46.60
2018-08-20T13:40:23.065Z,46.00
2018-08-20T13:42:55.084Z,45.70
2018-08-20T13:45:27.484Z,45.90
2018-08-20T13:47:59.704Z,44.50
2018-08-20T13:50:32.406Z,44.80
2018-08-20T13:53:04.464Z,44.30
2018-08-20T13:55:36.827Z,44.70
2018-08-20T13:58:08.504Z,44.30
2018-08-20T14:00:41.226Z,44.20
2018-08-20T14:03:14.731Z,43.70
2018-08-20T14:05:46.124Z,43.90
2018-08-20T14:08:18.229Z,44.20
2018-08-20T14:10:49.504Z,44.60
2018-08-20T14:13:21.944Z,44.90
2018-08-20T14:15:53.727Z,45.10
2018-08-20T14:18:26.404Z,44.80
2018-08-20T14:21:08.003Z,43.90
2018-08-20T14:23:40.666Z,44.10
2018-08-20T14:26:12.364Z,43.90
2018-08-20T14:28:42.984Z,43.90
2018-08-20T14:31:14.524Z,44.10
2018-08-20T14:33:47.004Z,44.30
2018-08-20T14:36:18.719Z,43.80
2018-08-20T14:38:51.764Z,43.50
2018-08-20T14:41:23.564Z,42.90
2018-08-20T14:43:55.423Z,42.50
2018-08-20T14:46:28.164Z,42.60
2018-08-20T14:48:59.564Z,42.70
2018-08-20T14:51:31.829Z,43.20
2018-08-20T14:54:03.644Z,43.40
2018-08-20T14:56:35.424Z,44.10
2018-08-20T14:59:07.644Z,44.30
2018-08-20T15:01:39.867Z,44.50
2018-08-20T15:04:12.385Z,44.80
2018-08-20T15:07:00.504Z,44.60
2018-08-20T15:09:32.906Z,44.10
2018-08-20T15:12:04.384Z,44.80
2018-08-20T15:14:36.501Z,45.60
2018-08-20T15:17:08.364Z,44.90
2018-08-20T15:19:39.505Z,45.10
2018-08-20T15:22:11.184Z,45.70
2018-08-20T15:24:43.664Z,46.50
2018-08-20T15:27:15.626Z,47.10
2018-08-20T15:29:47.304Z,46.50
2018-08-20T15:32:19.142Z,45.50
2018-08-20T15:34:50.765Z,44.80
2018-08-20T15:37:22.949Z,44.90
2018-08-20T15:39:55.044Z,44.50
2018-08-20T15:42:26.684Z,44.50
2018-08-20T15:44:58.425Z,44.30
2018-08-20T15:47:30.465Z,44.80
2018-08-20T15:50:03.567Z,44.10
2018-08-20T15:52:35.304Z,42.80
2018-08-20T15:55:07.966Z,43.60
2018-08-20T15:57:39.963Z,43.80
2018-08-20T16:00:14.644Z,44.20
2018-08-20T16:02:47.264Z,43.60
2018-08-20T16:05:19.944Z,44.20
2018-08-20T16:07:53.544Z,44.60
2018-08-20T16:10:25.232Z,44.50
2018-08-20T16:12:56.876Z,43.90
2018-08-20T16:15:29.584Z,43.10
2018-08-20T16:18:01.444Z,43.60
2018-08-20T16:20:33.465Z,43.40
2018-08-20T16:23:04.884Z,43.70
2018-08-20T16:25:37.624Z,43.30
2018-08-20T16:28:09.324Z,43.60
2018-08-20T16:30:42.664Z,43.50
2018-08-20T16:33:14.773Z,43.90
2018-08-20T16:35:45.906Z,44.30
2018-08-20T16:38:18.904Z,44.20
2018-08-20T16:40:50.703Z,43.90
2018-08-20T16:43:22.803Z,44.50
2018-08-20T16:45:55.143Z,43.90
2018-08-20T16:48:27.043Z,44.30
2018-08-20T16:50:59.096Z,44.40
2018-08-20T16:53:31.364Z,43.60
2018-08-20T16:56:03.503Z,43.80
2018-08-20T16:58:36.543Z,44.10
2018-08-20T17:01:11.564Z,43.50
2018-08-20T17:03:43.307Z,43.40
2018-08-20T17:06:15.184Z,43.30
2018-08-20T17:08:48.684Z,44.00
2018-08-20T17:11:21.704Z,44.10
2018-08-20T17:13:53.745Z,43.60
2018-08-20T17:16:25.344Z,43.90
2018-08-20T17:18:57.204Z,43.70
2018-08-20T17:21:29.744Z,43.70
2018-08-20T17:24:02.091Z,43.70
2018-08-20T17:26:34.165Z,43.00
2018-08-20T17:29:12.204Z,43.10
2018-08-20T17:31:44.204Z,43.10
2018-08-20T17:34:16.424Z,42.60
2018-08-20T17:36:48.165Z,42.60
2018-08-20T17:39:20.305Z,42.30
2018-08-20T17:41:52.185Z,43.30
2018-08-20T17:44:25.122Z,43.10
2018-08-20T17:46:56.925Z,42.90
2018-08-20T17:49:30.641Z,42.80
2018-08-20T17:52:02.565Z,45.00
2018-08-20T17:54:35.027Z,45.40
2018-08-20T17:57:06.404Z,45.70
2018-08-20T17:59:38.624Z,46.10
2018-08-20T18:02:13.745Z,46.10
2018-08-20T18:04:45.592Z,46.40
2018-08-20T18:07:17.910Z,46.50
2018-08-20T18:09:50.265Z,46.50
2018-08-20T18:12:22.524Z,46.70
2018-08-20T18:14:59.704Z,47.20
2018-08-20T18:17:31.440Z,47.30
2018-08-20T18:20:03.744Z,47.40
2018-08-20T18:22:35.424Z,47.50
2018-08-20T18:25:07.524Z,47.60
2018-08-20T18:27:43.287Z,47.80
2018-08-20T18:30:17.352Z,48.00
2018-08-20T18:32:49.427Z,47.90
2018-08-20T18:35:33.763Z,47.70
2018-08-20T18:38:05.386Z,47.70
2018-08-20T18:40:37.244Z,47.70
2018-08-20T18:43:08.964Z,47.50
2018-08-20T18:45:41.164Z,47.50
2018-08-20T18:48:12.984Z,47.30
2018-08-20T18:50:46.125Z,47.20
2018-08-20T18:53:19.664Z,47.20
2018-08-20T18:56:01.265Z,47.10
2018-08-20T18:58:35.345Z,47.00
2018-08-20T19:01:07.906Z,47.00
2018-08-20T19:03:46.064Z,47.00
2018-08-20T19:06:19.026Z,47.10
2018-08-20T19:08:51.484Z,47.20
2018-08-20T19:11:22.424Z,47.20
2018-08-20T19:14:00.525Z,47.20
2018-08-20T19:16:38.504Z,47.10
2018-08-20T19:19:11.305Z,47.10
2018-08-20T19:21:43.925Z,47.10
2018-08-20T19:24:15.184Z,47.40
2018-08-20T19:26:47.335Z,47.70
2018-08-20T19:29:29.245Z,47.70
2018-08-20T19:32:01.565Z,47.60
2018-08-20T19:34:33.347Z,47.70
2018-08-20T19:37:05.145Z,47.50
2018-08-20T19:39:37.325Z,48.00
2018-08-20T19:42:09.904Z,47.40
2018-08-20T19:44:43.564Z,47.10
2018-08-20T19:47:16.265Z,47.30
2018-08-20T19:49:48.305Z,47.20
2018-08-20T19:52:20.498Z,47.20
2018-08-20T19:54:56.685Z,47.10
2018-08-20T19:57:29.128Z,47.20
2018-08-20T20:00:01.325Z,47.20
2018-08-20T20:02:33.448Z,47.50
2018-08-20T20:05:06.106Z,47.60
2018-08-20T20:07:38.765Z,48.20
2018-08-20T20:10:13.745Z,48.70
2018-08-20T20:13:01.622Z,48.90
2018-08-20T20:15:37.544Z,49.00
2018-08-20T20:18:09.205Z,49.30
2018-08-20T20:20:41.564Z,49.50
2018-08-20T20:23:13.125Z,49.70
2018-08-20T20:25:45.724Z,50.40
2018-08-20T20:28:17.264Z,52.30
2018-08-20T20:30:48.525Z,52.60
2018-08-20T20:33:20.145Z,52.90
2018-08-20T20:35:52.145Z,52.10
2018-08-20T20:38:24.155Z,50.80
2018-08-20T20:40:56.864Z,50.90
2018-08-20T20:43:33.585Z,51.50
2018-08-20T20:46:05.965Z,52.20
2018-08-20T20:48:38.465Z,52.60
2018-08-20T20:51:11.404Z,52.80
2018-08-20T20:53:43.066Z,52.90
2018-08-20T20:56:14.627Z,53.20
2018-08-20T20:58:46.665Z,52.80
2018-08-20T21:01:18.552Z,52.70
2018-08-20T21:03:51.264Z,52.80
2018-08-20T21:06:23.304Z,53.00
2018-08-20T21:08:54.684Z,53.30
2018-08-20T21:11:26.845Z,53.40
2018-08-20T21:13:59.266Z,53.40
2018-08-20T21:16:31.304Z,53.70
2018-08-20T21:19:05.662Z,53.90
2018-08-20T21:21:37.724Z,53.90
2018-08-20T21:24:10.066Z,54.00
2018-08-20T21:26:41.744Z,53.80
2018-08-20T21:29:15.564Z,53.70
2018-08-20T21:31:52.285Z,53.70
2018-08-20T21:34:28.765Z,53.70
2018-08-20T21:37:00.324Z,53.70
2018-08-20T21:39:32.624Z,53.60
2018-08-20T21:42:04.685Z,53.80
2018-08-20T21:44:36.663Z,54.10
2018-08-20T21:47:24.264Z,54.00
2018-08-20T21:49:56.304Z,54.50
2018-08-20T21:52:28.204Z,54.70
2018-08-20T21:54:59.924Z,54.90
2018-08-20T21:57:32.224Z,55.00
2018-08-20T22:00:17.444Z,55.30
2018-08-20T22:02:53.828Z,55.30
2018-08-20T22:05:26.365Z,55.40
2018-08-20T22:07:59.065Z,55.70
2018-08-20T22:10:31.990Z,55.10
2018-08-20T22:13:03.584Z,55.00
2018-08-20T22:15:35.424Z,55.10
2018-08-20T22:18:07.824Z,55.20
2018-08-20T22:20:39.825Z,55.20
2018-08-20T22:23:25.019Z,55.20
2018-08-20T22:25:42.641Z,55.40
2018-08-20T22:28:14.060Z,55.40
2018-08-20T22:30:49.424Z,55.60
2018-08-20T22:33:21.804Z,56.00
2018-08-20T22:35:53.957Z,56.20
2018-08-20T22:38:27.324Z,56.50
2018-08-20T22:40:59.043Z,56.90
2018-08-20T22:43:31.285Z,57.10
2018-08-20T22:46:03.864Z,57.10
2018-08-20T22:48:35.044Z,57.50
2018-08-20T22:51:14.704Z,57.30
2018-08-20T22:53:51.843Z,57.40
2018-08-20T22:56:25.104Z,57.60
2018-08-20T22:58:59.504Z,57.60
2018-08-20T23:01:31.984Z,58.00
2018-08-20T23:04:04.506Z,58.20
2018-08-20T23:06:36.524Z,58.20
2018-08-20T23:09:22.325Z,58.30
2018-08-20T23:11:53.864Z,58.50
2018-08-20T23:14:26.188Z,58.20
2018-08-20T23:16:57.724Z,58.40
2018-08-20T23:19:31.364Z,58.30
2018-08-20T23:22:04.184Z,58.30
2018-08-20T23:24:38.403Z,58.40
2018-08-20T23:27:11.464Z,58.20
2018-08-20T23:29:43.944Z,58.30
2018-08-20T23:32:15.906Z,58.30
2018-08-20T23:34:48.604Z,58.40
2018-08-20T23:37:20.947Z,59.00
2018-08-20T23:39:53.284Z,59.20
2018-08-20T23:42:25.264Z,58.70
2018-08-20T23:44:57.724Z,58.70
2018-08-20T23:47:29.764Z,59.00
2018-08-20T23:50:02.004Z,59.10
2018-08-20T23:52:33.784Z,59.30
2018-08-20T23:55:05.584Z,59.40
2018-08-20T23:57:37.744Z,59.50
